KCHS/CHS METAR and TAF weather

Enter ICAO airport designator
Station Type Date Time Source
KCHS METAR 2018/01/16 08:56 UTC NOAA

KCHS 160856Z 35004KT 10SM CLR M03/M07 A3044 RMK AO2 SLP309 T10281067 56001


Station Type Date Time Source
KCHS Decoded METAR 2018/01/16 08:56 UTC NOAA

CHARLESTON INT'L AIRPORT, SC, United States (KCHS) 32-54N 080-02W 13M
Jan 16, 2018 - 03:56 AM EST / 2018.01.16 0856 UTC
Wind: from the N (350 degrees) at 5 MPH (4 KT):0
Visibility: 10 mile(s):0
Sky conditions: clear
Temperature: 27.0 F (-2.8 C)
Windchill: 21 F (-6 C):1
Dew Point: 19.9 F (-6.7 C)
Relative Humidity: 74%
Pressure (altimeter): 30.44 in. Hg (1030 hPa)
Pressure tendency: 0.00 inches (0.1 hPa) lower than three hours ago
ob: KCHS 160856Z 35004KT 10SM CLR M03/M07 A3044 RMK AO2 SLP309 T10281067 56001
cycle: 9

Station Type Date Time Source
KCHS TAF 2018/01/16 06:27 UTC NOAA

TAF KCHS 160523Z 1606/1706 01004KT P6SM SCT250
FM162300 00000KT P6SM BKN250


Example: see airport list